Panama City, Florida
Current Conditions -  °F | °C
As of 12:58 AM on Saturday 01 Nov 2014 (Local Time) from KPAM Reporting Station
Clear Clear  
Wind Chill: 58°   Ceiling: Unl
Heat Index: 58°   Visibility: 10mi
Dew Point: 47°   Wind: 17mph
Humidity: 67%   Direction: 350°N
Pressure: 30.02"   Gusts: 26mph
Location:  30.16°N, 85.66°W
Report Text: KPAM 010558Z AUTO 35015G23KT 10SM CLR 14/08 A3002 RMK AO2 SLP169 T01420081 10198 20142 52018 $
Loading
Personal Weather Stations






























Interactive Weather Map
Tropical Storm Tracking
New forecast layout! Learn more

10-Day Weather Forecast

Advertisements
Track Severe Weather on mobile